Time;durP1;ratioP1;P1;durP2;ratioP2;P2;SDS_P1;SDS_P2;PMS_P1;PMS_P2;Temp;Humidity;BMP_temperature;BMP_pressure;BME280_temperature;BME280_humidity;BME280_pressure;Samples;Min_cycle;Max_cycle;Signal;HPM_P1;HPM_P2
2023/05/10 00:02:16;;;;;;;4.87;3.30;;;;;;;14.02;52.90;99982.28;5110986;28;20208;-79
2023/05/10 00:04:43;;;;;;;3.50;2.50;;;;;;;14.03;53.47;99979.47;5109017;28;20227;-78
2023/05/10 00:07:10;;;;;;;4.17;2.43;;;;;;;14.03;53.63;99976.78;5109813;28;20222;-78
2023/05/10 00:09:36;;;;;;;3.37;2.50;;;;;;;14.03;53.54;99979.47;5097694;28;20211;-78
2023/05/10 00:12:03;;;;;;;4.17;1.93;;;;;;;14.01;54.07;99969.88;5111530;28;20207;-77
2023/05/10 00:14:29;;;;;;;5.70;2.47;;;;;;;13.98;54.03;99970.16;5110510;28;20192;-77
2023/05/10 00:16:57;;;;;;;2.93;2.30;;;;;;;13.96;54.14;99966.78;5110428;28;20660;-77
2023/05/10 00:19:23;;;;;;;4.73;2.20;;;;;;;13.95;54.70;99970.44;5110528;28;20219;-78
2023/05/10 00:21:50;;;;;;;2.73;2.23;;;;;;;13.93;54.97;99965.22;5112358;28;20590;-77
2023/05/10 00:24:16;;;;;;;8.90;3.03;;;;;;;13.90;54.93;99962.81;5111130;28;20200;-77
2023/05/10 00:26:43;;;;;;;3.57;2.63;;;;;;;13.87;55.02;99961.25;5110538;28;20200;-77
2023/05/10 00:29:09;;;;;;;4.97;2.67;;;;;;;13.84;55.65;99956.16;5105144;28;20237;-78
2023/05/10 00:31:36;;;;;;;6.10;2.73;;;;;;;13.82;55.98;99949.25;5108878;28;20227;-77
2023/05/10 00:34:03;;;;;;;2.67;2.23;;;;;;;13.80;55.90;99949.38;5101409;28;20204;-77
2023/05/10 00:36:31;;;;;;;4.83;2.77;;;;;;;13.75;55.72;99956.13;5108292;28;20208;-77
2023/05/10 00:38:57;;;;;;;3.50;2.50;;;;;;;13.70;56.74;99951.16;5102697;28;20196;-77
2023/05/10 00:41:23;;;;;;;3.83;2.67;;;;;;;13.64;56.94;99951.69;5109763;28;20227;-79
2023/05/10 00:43:50;;;;;;;3.07;2.40;;;;;;;13.58;57.40;99940.69;5108760;28;20659;-78
2023/05/10 00:46:17;;;;;;;3.60;2.80;;;;;;;13.49;57.82;99945.84;5109411;28;20235;-78
2023/05/10 00:48:44;;;;;;;3.03;2.60;;;;;;;13.42;58.02;99938.50;5109555;28;20196;-78
2023/05/10 00:51:12;;;;;;;4.20;3.33;;;;;;;13.38;58.72;99939.75;5104469;28;20224;-78
2023/05/10 00:53:38;;;;;;;4.30;2.77;;;;;;;13.35;58.87;99940.84;5111149;28;20195;-78
2023/05/10 00:56:06;;;;;;;2.67;2.23;;;;;;;13.34;58.44;99938.31;5110678;28;20210;-78
2023/05/10 00:58:33;;;;;;;4.27;2.57;;;;;;;13.32;58.58;99934.91;5099469;28;20207;-78
2023/05/10 01:01:00;;;;;;;4.40;2.63;;;;;;;13.30;58.44;99937.72;5110955;28;20235;-77
2023/05/10 01:03:26;;;;;;;4.10;3.00;;;;;;;13.30;58.40;99936.88;5111988;28;20207;-78
2023/05/10 01:05:53;;;;;;;3.63;2.90;;;;;;;13.28;58.38;99933.47;5107259;28;20224;-77
2023/05/10 01:08:21;;;;;;;3.20;2.80;;;;;;;13.29;58.87;99937.84;5108625;28;20203;-78
2023/05/10 01:10:48;;;;;;;6.33;3.37;;;;;;;13.26;59.24;99946.97;5105167;28;20857;-78
2023/05/10 01:13:25;;;;;;;3.40;2.87;;;;;;;13.20;59.40;99936.81;5102648;28;20269;-78
2023/05/10 01:15:52;;;;;;;3.77;2.80;;;;;;;13.13;60.22;99939.13;5109313;28;20199;-78
2023/05/10 01:18:21;;;;;;;5.77;2.83;;;;;;;13.05;60.91;99927.41;5105423;28;20241;-78
2023/05/10 01:20:56;;;;;;;3.77;2.90;;;;;;;12.97;61.04;99940.56;5108716;28;20223;-78
2023/05/10 01:23:59;;;;;;;4.03;3.30;;;;;;;12.89;61.46;99933.22;5101762;27;20296;-77
2023/05/10 01:27:02;;;;;;;4.40;3.07;;;;;;;12.79;61.88;99937.59;5103078;27;20215;-78
2023/05/10 01:29:52;;;;;;;4.77;2.80;;;;;;;12.69;61.76;99929.53;5106414;28;20558;-78
2023/05/10 01:32:28;;;;;;;3.67;2.97;;;;;;;12.62;61.77;99941.69;5108844;28;20594;-77
2023/05/10 01:35:01;;;;;;;4.53;3.20;;;;;;;12.59;61.81;99939.28;5106442;28;20742;-78
2023/05/10 01:37:38;;;;;;;4.57;3.00;;;;;;;12.57;61.82;99948.38;5104119;28;20208;-78
2023/05/10 01:40:12;;;;;;;5.07;2.93;;;;;;;12.56;61.76;99936.84;5096267;28;20231;-79
2023/05/10 01:42:47;;;;;;;4.37;3.40;;;;;;;12.57;62.00;99940.38;5105612;28;20212;-78
2023/05/10 01:45:20;;;;;;;3.87;2.97;;;;;;;12.57;62.30;99937.69;5101482;28;20222;-79
2023/05/10 01:47:52;;;;;;;4.33;3.23;;;;;;;12.57;62.61;99943.03;5103442;28;20200;-78
2023/05/10 01:50:23;;;;;;;5.33;2.80;;;;;;;12.57;62.53;99935.88;5105867;28;20223;-79
2023/05/10 01:52:55;;;;;;;8.17;2.97;;;;;;;12.55;62.25;99932.47;5102323;28;20207;-79
2023/05/10 01:55:25;;;;;;;3.93;2.90;;;;;;;12.55;62.61;99931.63;5101995;28;20249;-79
2023/05/10 01:58:07;;;;;;;5.57;4.07;;;;;;;12.51;62.83;99933.72;5104026;28;20655;-79
2023/05/10 02:00:35;;;;;;;4.37;3.43;;;;;;;12.44;63.40;99929.84;5101464;28;20314;-78
2023/05/10 02:03:07;;;;;;;4.10;3.30;;;;;;;12.38;63.94;99927.69;5107436;28;20615;-78
2023/05/10 02:05:35;;;;;;;9.13;4.23;;;;;;;12.32;64.61;99933.53;5100955;28;20229;-79
2023/05/10 02:08:06;;;;;;;4.77;3.53;;;;;;;12.26;65.09;99931.38;5106198;28;20213;-79
2023/05/10 02:10:33;;;;;;;3.80;3.40;;;;;;;12.21;65.42;99930.88;5100199;28;20231;-80
2023/05/10 02:13:01;;;;;;;4.60;3.60;;;;;;;12.19;65.56;99931.00;5108774;28;20708;-78
2023/05/10 02:15:29;;;;;;;5.23;3.90;;;;;;;12.18;65.88;99926.66;5108769;28;20209;-78
2023/05/10 02:17:58;;;;;;;4.20;3.50;;;;;;;12.14;66.31;99927.88;5105447;28;20198;-78
2023/05/10 02:20:26;;;;;;;4.97;3.93;;;;;;;12.09;66.77;99932.75;5096313;28;20711;-79
2023/05/10 02:22:56;;;;;;;4.23;3.40;;;;;;;12.05;67.22;99925.94;5098588;28;20202;-79
2023/05/10 02:25:24;;;;;;;4.50;3.47;;;;;;;12.02;67.42;99932.38;5101675;28;20241;-79
2023/05/10 02:27:53;;;;;;;6.80;3.23;;;;;;;12.00;67.76;99933.50;5107208;28;20294;-78
2023/05/10 02:30:21;;;;;;;4.67;4.03;;;;;;;12.01;68.33;99928.00;5099647;28;20248;-78
2023/05/10 02:32:50;;;;;;;4.47;3.30;;;;;;;12.03;68.40;99933.22;5102885;28;20212;-79
2023/05/10 02:35:17;;;;;;;4.33;3.20;;;;;;;12.03;68.33;99927.88;5106628;28;20200;-79
2023/05/10 02:37:47;;;;;;;5.27;3.30;;;;;;;12.04;68.54;99924.25;5100015;28;20216;-79
2023/05/10 02:40:16;;;;;;;4.03;3.60;;;;;;;12.06;68.63;99922.31;5102610;28;20227;-79
2023/05/10 02:42:44;;;;;;;4.43;3.20;;;;;;;12.09;68.84;99927.41;5101124;28;20204;-79
2023/05/10 02:45:15;;;;;;;3.57;3.27;;;;;;;12.10;68.89;99929.94;5099721;28;20204;-79
2023/05/10 02:47:42;;;;;;;3.90;3.23;;;;;;;12.13;68.91;99924.38;5100603;28;20201;-79
2023/05/10 02:50:09;;;;;;;4.47;3.73;;;;;;;12.15;68.85;99921.56;5097068;28;20223;-79
2023/05/10 02:52:41;;;;;;;5.17;3.33;;;;;;;12.18;68.69;99922.16;5101939;28;20710;-79
2023/05/10 02:55:12;;;;;;;6.73;3.67;;;;;;;12.22;68.65;99916.56;5100120;28;20543;-79
2023/05/10 02:57:44;;;;;;;4.27;3.70;;;;;;;12.22;68.72;99916.56;5100386;28;20678;-79
2023/05/10 03:00:11;;;;;;;4.77;3.57;;;;;;;12.21;68.26;99915.72;5106306;28;20232;-79
2023/05/10 03:02:38;;;;;;;4.90;3.83;;;;;;;12.19;68.41;99912.31;5102460;28;20554;-79
2023/05/10 03:05:05;;;;;;;5.97;3.67;;;;;;;12.15;67.99;99913.56;5102817;28;20205;-79
2023/05/10 03:07:31;;;;;;;4.73;4.00;;;;;;;12.12;67.88;99901.31;5108313;28;20214;-79
2023/05/10 03:09:58;;;;;;;6.10;4.00;;;;;;;12.11;68.12;99904.09;5098355;28;20225;-79
2023/05/10 03:12:39;;;;;;;4.83;3.60;;;;;;;12.11;68.29;99917.44;5101394;28;20308;-80
2023/05/10 03:15:14;;;;;;;6.00;3.57;;;;;;;12.08;68.83;99912.34;5109473;28;20213;-79
2023/05/10 03:17:48;;;;;;;5.43;4.17;;;;;;;12.05;69.15;99907.25;5109667;28;20211;-79
2023/05/10 03:20:22;;;;;;;4.70;4.23;;;;;;;12.05;69.78;99905.44;5104271;28;20232;-80
2023/05/10 03:22:52;;;;;;;5.17;4.27;;;;;;;12.04;70.43;99914.41;5110058;28;20226;-79
2023/05/10 03:25:21;;;;;;;4.50;4.10;;;;;;;12.04;70.60;99913.56;5104682;28;20221;-79
2023/05/10 03:27:50;;;;;;;4.90;3.97;;;;;;;12.04;70.98;99914.41;5102948;28;20561;-79
2023/05/10 03:30:17;;;;;;;4.37;3.97;;;;;;;12.04;71.15;99913.56;5105886;28;20234;-78
2023/05/10 03:32:44;;;;;;;8.37;4.30;;;;;;;12.02;71.64;99923.53;5099494;28;20213;-79
2023/05/10 03:35:11;;;;;;;6.27;4.10;;;;;;;12.01;72.24;99921.81;5105480;28;20207;-79
2023/05/10 03:37:38;;;;;;;6.63;4.97;;;;;;;12.02;72.88;99920.84;5108859;28;20554;-78
2023/05/10 03:40:05;;;;;;;5.00;4.50;;;;;;;12.03;73.88;99926.06;5108926;28;20231;-79
2023/05/10 03:42:32;;;;;;;5.17;4.63;;;;;;;12.08;74.44;99920.38;5098432;28;20204;-79
2023/05/10 03:45:00;;;;;;;5.63;5.00;;;;;;;12.09;75.12;99927.41;5098488;28;20207;-79
2023/05/10 03:47:26;;;;;;;5.77;4.90;;;;;;;12.11;75.69;99918.31;5104635;28;20223;-79
2023/05/10 03:49:53;;;;;;;6.40;5.37;;;;;;;12.13;76.36;99923.53;5100130;28;20301;-79
2023/05/10 03:52:19;;;;;;;6.00;5.33;;;;;;;12.14;76.85;99920.72;5110700;28;20203;-79
2023/05/10 03:54:46;;;;;;;5.63;4.83;;;;;;;12.18;77.21;99931.16;5109754;28;20629;-79
2023/05/10 03:57:12;;;;;;;5.77;5.17;;;;;;;12.20;77.92;99919.34;5106822;28;20656;-79
2023/05/10 03:59:38;;;;;;;7.33;5.30;;;;;;;12.21;78.06;99921.06;5103666;28;20207;-78
2023/05/10 04:02:06;;;;;;;6.07;5.23;;;;;;;12.23;78.41;99928.94;5105505;28;20207;-79
2023/05/10 04:04:33;;;;;;;6.20;5.40;;;;;;;12.24;78.75;99922.63;5108408;28;20643;-81
2023/05/10 04:06:59;;;;;;;6.40;5.53;;;;;;;12.24;78.96;99918.13;5096479;28;20999;-80
2023/05/10 04:09:26;;;;;;;6.93;5.90;;;;;;;12.25;79.57;99917.16;5100849;28;20711;-80
2023/05/10 04:11:52;;;;;;;5.83;5.33;;;;;;;12.27;80.42;99920.56;5104148;28;20223;-79
2023/05/10 04:14:19;;;;;;;6.77;6.00;;;;;;;12.26;80.81;99918.88;5104932;28;20203;-79
2023/05/10 04:16:45;;;;;;;7.23;6.23;;;;;;;12.26;81.49;99923.34;5110303;28;20549;-79
2023/05/10 04:19:13;;;;;;;9.07;5.70;;;;;;;12.26;81.84;99918.88;5107441;28;21771;-79
2023/05/10 04:21:39;;;;;;;6.07;5.47;;;;;;;12.24;81.87;99926.16;5111272;28;20622;-79
2023/05/10 04:24:06;;;;;;;9.03;6.27;;;;;;;12.21;82.13;99923.72;5106099;28;20207;-79
2023/05/10 04:26:33;;;;;;;7.27;5.47;;;;;;;12.23;82.77;99920.94;5100432;28;20231;-80
2023/05/10 04:28:59;;;;;;;6.20;5.60;;;;;;;12.23;83.21;99918.25;5104408;28;20215;-79
2023/05/10 04:31:26;;;;;;;6.30;4.80;;;;;;;12.24;83.22;99923.47;5103686;28;20228;-79
2023/05/10 04:33:53;;;;;;;6.50;5.80;;;;;;;12.25;83.87;99927.84;5106267;28;20205;-79
2023/05/10 04:36:20;;;;;;;6.50;5.77;;;;;;;12.28;84.38;99930.28;5101754;28;20675;-80
2023/05/10 04:38:47;;;;;;;7.20;6.03;;;;;;;12.31;84.62;99926.50;5110374;28;20743;-80
2023/05/10 04:41:13;;;;;;;8.03;6.60;;;;;;;12.33;84.74;99930.75;5103861;28;20220;-80
2023/05/10 04:43:40;;;;;;;9.67;6.67;;;;;;;12.36;84.88;99924.31;5097646;28;20680;-81
2023/05/10 04:46:07;;;;;;;7.80;6.77;;;;;;;12.39;85.90;99929.38;5107739;28;20234;-81
2023/05/10 04:48:33;;;;;;;6.77;6.07;;;;;;;12.40;85.73;99931.94;5099253;28;20203;-79
2023/05/10 04:51:00;;;;;;;6.90;6.20;;;;;;;12.40;86.00;99947.09;5104908;27;20229;-80
2023/05/10 04:53:28;;;;;;;9.17;7.07;;;;;;;12.38;86.09;99949.91;5109302;28;20206;-80
2023/05/10 04:55:54;;;;;;;9.40;7.13;;;;;;;12.35;86.25;99957.34;5107547;27;20206;-80
2023/05/10 04:58:21;;;;;;;7.70;6.90;;;;;;;12.34;86.91;99945.81;5108707;27;20199;-80
2023/05/10 05:00:47;;;;;;;7.90;7.20;;;;;;;12.35;87.50;99944.84;5103396;28;20281;-80
2023/05/10 05:03:14;;;;;;;8.27;7.13;;;;;;;12.38;87.97;99959.72;5101276;28;20211;-80
2023/05/10 05:05:40;;;;;;;7.70;6.77;;;;;;;12.39;88.86;99966.75;5102503;28;20582;-80
2023/05/10 05:08:06;;;;;;;8.00;7.20;;;;;;;12.38;89.34;99965.06;5102629;28;20640;-81
2023/05/10 05:10:34;;;;;;;8.03;7.23;;;;;;;12.40;89.67;99976.47;5107274;28;20231;-80
2023/05/10 05:13:01;;;;;;;7.97;7.17;;;;;;;12.39;89.98;99975.63;5107147;28;20198;-80
2023/05/10 05:15:27;;;;;;;7.43;6.77;;;;;;;12.40;90.69;99982.66;5107406;28;20723;-82
2023/05/10 05:17:54;;;;;;;8.03;6.87;;;;;;;12.42;90.79;99977.19;5100039;27;20209;-81
2023/05/10 05:20:21;;;;;;;6.70;6.10;;;;;;;12.44;91.47;99980.59;5097654;28;20238;-81
2023/05/10 05:22:47;;;;;;;6.10;5.20;;;;;;;12.45;91.58;99988.50;5098980;28;20566;-81
2023/05/10 05:25:14;;;;;;;5.20;4.70;;;;;;;12.44;91.66;99978.78;5106072;28;21830;-82
2023/05/10 05:27:42;;;;;;;5.30;4.80;;;;;;;12.43;91.32;99990.44;5108992;28;20238;-81
2023/05/10 05:30:10;;;;;;;5.67;4.50;;;;;;;12.43;91.09;99992.25;5110325;28;20574;-81
2023/05/10 05:32:36;;;;;;;7.63;5.23;;;;;;;12.45;91.48;99991.16;5102592;28;20195;-81
2023/05/10 05:35:03;;;;;;;6.03;5.33;;;;;;;12.48;91.70;99992.75;5107275;27;20204;-81
2023/05/10 05:37:29;;;;;;;7.17;5.73;;;;;;;12.50;92.05;99983.63;5101380;28;20212;-81
2023/05/10 05:39:56;;;;;;;6.50;5.37;;;;;;;12.55;92.07;99991.25;5095847;28;20215;-81
2023/05/10 05:42:23;;;;;;;6.30;5.63;;;;;;;12.60;92.04;99990.88;5100906;28;20210;-82
2023/05/10 05:44:50;;;;;;;6.27;5.60;;;;;;;12.62;91.88;99994.28;5102643;28;20192;-80
2023/05/10 05:47:17;;;;;;;6.37;5.87;;;;;;;12.63;92.28;100001.31;5110584;28;20229;-81
2023/05/10 05:49:45;;;;;;;6.07;5.47;;;;;;;12.63;92.25;100006.66;5107610;28;20289;-81
2023/05/10 05:52:12;;;;;;;6.17;5.57;;;;;;;12.64;92.85;100014.53;5097616;28;20216;-81
2023/05/10 05:54:38;;;;;;;6.17;5.50;;;;;;;12.67;92.96;100013.44;5105030;28;20203;-82
2023/05/10 05:57:05;;;;;;;5.87;5.37;;;;;;;12.68;93.20;100015.16;5106129;28;20205;-80
2023/05/10 05:59:31;;;;;;;6.40;5.80;;;;;;;12.68;93.45;100023.16;5109412;28;20740;-80
2023/05/10 06:02:00;;;;;;;6.00;5.33;;;;;;;12.68;93.20;100036.53;5108344;28;20261;-81
2023/05/10 06:04:26;;;;;;;6.10;5.50;;;;;;;12.66;93.81;100033.13;5107562;28;20301;-80
2023/05/10 06:06:53;;;;;;;6.53;5.83;;;;;;;12.65;93.79;100034.09;5102056;28;20601;-81
2023/05/10 06:09:20;;;;;;;6.77;5.87;;;;;;;12.66;94.39;100035.78;5111804;28;20234;-81
2023/05/10 06:11:46;;;;;;;7.47;6.13;;;;;;;12.66;94.69;100030.44;5107436;28;20232;-80
2023/05/10 06:14:13;;;;;;;6.63;5.77;;;;;;;12.68;95.14;100034.69;5100911;28;20626;-81
2023/05/10 06:16:40;;;;;;;6.20;5.60;;;;;;;12.69;95.40;100035.56;5103921;28;20636;-80
2023/05/10 06:19:08;;;;;;;5.87;5.33;;;;;;;12.69;95.82;100038.22;5109120;28;20322;-81
2023/05/10 06:21:34;;;;;;;6.57;5.93;;;;;;;12.69;96.20;100038.22;5105968;28;20231;-81
2023/05/10 06:24:01;;;;;;;7.27;6.53;;;;;;;12.70;96.59;100037.25;5108271;28;20232;-81
2023/05/10 06:26:27;;;;;;;6.77;6.17;;;;;;;12.73;97.13;100045.00;5106921;28;20700;-81
2023/05/10 06:28:53;;;;;;;6.87;6.17;;;;;;;12.75;97.34;100051.06;5109256;28;20677;-81
2023/05/10 06:31:20;;;;;;;6.73;6.07;;;;;;;12.76;97.93;100045.59;5104834;28;20253;-81
2023/05/10 06:33:47;;;;;;;6.17;5.57;;;;;;;12.78;98.27;100043.66;5108496;27;20287;-80
2023/05/10 06:36:15;;;;;;;6.50;5.90;;;;;;;12.82;98.61;100057.59;5103679;28;20196;-81
2023/05/10 06:38:41;;;;;;;6.53;5.97;;;;;;;12.82;98.79;100057.59;5108786;28;20203;-80
2023/05/10 06:41:08;;;;;;;6.03;5.53;;;;;;;12.85;99.25;100057.38;5111085;28;20216;-80
2023/05/10 06:43:34;;;;;;;6.77;6.00;;;;;;;12.86;99.96;100061.75;5108659;28;20203;-80
2023/05/10 06:46:01;;;;;;;6.53;5.93;;;;;;;12.88;100.00;100059.78;5108723;28;20214;-81
2023/05/10 06:48:27;;;;;;;6.47;5.80;;;;;;;12.91;100.00;100058.66;5107540;28;20234;-80
2023/05/10 06:50:54;;;;;;;7.03;5.97;;;;;;;12.91;100.00;100075.53;5100501;28;20227;-80
2023/05/10 06:53:22;;;;;;;7.40;6.23;;;;;;;12.92;100.00;100066.56;5102300;28;20203;-80
2023/05/10 06:55:50;;;;;;;7.43;6.13;;;;;;;12.94;100.00;100075.31;5109588;27;20203;-79
2023/05/10 06:58:16;;;;;;;8.17;6.60;;;;;;;12.94;100.00;100071.78;5103270;28;20240;-79
2023/05/10 07:00:43;;;;;;;7.07;6.47;;;;;;;12.96;100.00;100075.19;5103893;28;20228;-80
2023/05/10 07:03:10;;;;;;;7.70;6.63;;;;;;;12.99;100.00;100072.25;5107927;28;20231;-80
2023/05/10 07:05:36;;;;;;;7.90;7.20;;;;;;;13.03;100.00;100071.88;5108762;28;20215;-80
2023/05/10 07:08:03;;;;;;;7.73;6.90;;;;;;;13.07;100.00;100080.50;5109863;28;20226;-80
2023/05/10 07:10:31;;;;;;;7.90;6.13;;;;;;;13.13;100.00;100074.63;5108410;28;20227;-80
2023/05/10 07:12:57;;;;;;;7.93;6.00;;;;;;;13.16;100.00;100069.91;5102448;28;20204;-80
2023/05/10 07:15:24;;;;;;;6.60;5.97;;;;;;;13.22;100.00;100081.09;5104831;28;20213;-80
2023/05/10 07:17:51;;;;;;;7.47;6.30;;;;;;;13.28;100.00;100083.22;5109591;28;20199;-80
2023/05/10 07:20:18;;;;;;;7.03;5.80;;;;;;;13.32;100.00;100088.19;5107026;28;20246;-80
2023/05/10 07:22:44;;;;;;;6.20;5.60;;;;;;;13.35;100.00;100087.09;5094579;28;20683;-80
2023/05/10 07:25:11;;;;;;;6.37;5.57;;;;;;;13.39;100.00;100091.22;5102938;28;20201;-81
2023/05/10 07:27:39;;;;;;;6.07;5.47;;;;;;;13.44;100.00;100086.31;5099495;28;20288;-81
2023/05/10 07:30:06;;;;;;;7.27;5.60;;;;;;;13.48;100.00;100093.13;5102707;28;20238;-80
2023/05/10 07:32:33;;;;;;;6.50;5.73;;;;;;;13.52;100.00;100095.41;5096418;28;20672;-80
2023/05/10 07:35:00;;;;;;;7.83;5.73;;;;;;;13.56;100.00;100096.00;5107743;28;20233;-80
2023/05/10 07:37:26;;;;;;;5.70;4.97;;;;;;;13.60;100.00;100093.91;5105071;28;20245;-81
2023/05/10 07:39:52;;;;;;;5.53;5.03;;;;;;;13.64;100.00;100098.84;5107668;28;20206;-80
2023/05/10 07:42:19;;;;;;;5.40;4.77;;;;;;;13.65;100.00;100097.88;5109296;28;20211;-80
2023/05/10 07:44:47;;;;;;;5.20;4.40;;;;;;;13.69;100.00;100107.34;5101063;28;20218;-80
2023/05/10 07:47:13;;;;;;;6.23;4.50;;;;;;;13.72;100.00;100098.22;5109498;28;20616;-80
2023/05/10 07:49:40;;;;;;;4.10;3.73;;;;;;;13.73;100.00;100106.13;5109956;27;20226;-80
2023/05/10 07:52:06;;;;;;;6.13;4.83;;;;;;;13.77;100.00;100115.59;5109768;27;20758;-80
2023/05/10 07:54:33;;;;;;;3.73;3.43;;;;;;;13.81;100.00;100113.47;5102105;28;20638;-80
2023/05/10 07:57:00;;;;;;;4.07;3.77;;;;;;;13.81;100.00;100119.69;5111636;27;20200;-81
2023/05/10 07:59:27;;;;;;;3.73;3.43;;;;;;;13.82;100.00;100115.19;5103888;28;20207;-81
2023/05/10 08:01:55;;;;;;;3.90;3.60;;;;;;;13.81;100.00;100127.72;5110436;27;20592;-79
2023/05/10 08:04:22;;;;;;;3.30;3.00;;;;;;;13.83;100.00;100122.22;5113022;27;20196;-79
2023/05/10 08:06:48;;;;;;;3.70;3.20;;;;;;;13.86;100.00;100130.00;5107793;27;20231;-80
2023/05/10 08:09:15;;;;;;;3.00;2.77;;;;;;;13.84;100.00;100130.13;5108035;28;20273;-80
2023/05/10 08:11:41;;;;;;;3.23;2.67;;;;;;;13.87;100.00;100137.06;5104495;28;20604;-80
2023/05/10 08:14:08;;;;;;;2.97;2.53;;;;;;;13.90;100.00;100140.34;5116161;28;20301;-80
2023/05/10 08:16:35;;;;;;;4.50;2.83;;;;;;;13.93;100.00;100147.25;5108780;28;20238;-79
2023/05/10 08:19:03;;;;;;;3.43;2.63;;;;;;;13.95;100.00;100149.81;5110864;28;20911;-78
2023/05/10 08:21:31;;;;;;;3.27;2.97;;;;;;;13.97;100.00;100153.22;5107178;28;20606;-80
2023/05/10 08:23:57;;;;;;;3.53;3.23;;;;;;;14.00;100.00;100156.44;5106802;28;20665;-79
2023/05/10 08:26:24;;;;;;;3.43;3.13;;;;;;;14.03;100.00;100160.69;5106411;28;20687;-79
2023/05/10 08:28:50;;;;;;;3.53;3.20;;;;;;;14.04;100.00;100163.25;5106481;28;20228;-79
2023/05/10 08:31:17;;;;;;;3.40;3.10;;;;;;;14.08;100.00;100166.50;5105325;28;20225;-79
2023/05/10 08:33:44;;;;;;;3.33;2.60;;;;;;;14.08;100.00;100166.50;5103790;27;20295;-79
2023/05/10 08:36:13;;;;;;;3.20;2.73;;;;;;;14.07;100.00;100168.34;5109815;28;20211;-78
2023/05/10 08:38:40;;;;;;;2.50;2.30;;;;;;;14.09;100.00;100160.19;5108820;27;20674;-78
2023/05/10 08:41:07;;;;;;;3.33;2.27;;;;;;;14.08;100.00;100175.41;5105415;28;20271;-79
2023/05/10 08:43:37;;;;;;;2.90;2.27;;;;;;;14.08;100.00;100164.69;5102743;28;20214;-79
2023/05/10 08:46:06;;;;;;;2.40;2.20;;;;;;;14.10;100.00;100184.16;5102040;28;20200;-79
2023/05/10 08:48:35;;;;;;;2.00;1.80;;;;;;;14.14;100.00;100176.72;5110287;28;20259;-79
2023/05/10 08:51:03;;;;;;;2.13;1.60;;;;;;;14.13;100.00;100186.56;5104291;28;20589;-79
2023/05/10 08:53:33;;;;;;;1.30;1.20;;;;;;;14.15;100.00;100187.25;5109343;28;20660;-79
2023/05/10 08:56:02;;;;;;;1.17;1.07;;;;;;;14.19;100.00;100186.03;5104793;28;20211;-79
2023/05/10 08:58:29;;;;;;;1.07;1.00;;;;;;;14.24;100.00;100191.00;5107419;27;20200;-79
2023/05/10 09:00:56;;;;;;;1.17;1.00;;;;;;;14.26;100.00;100189.03;5105910;28;20224;-79
2023/05/10 09:03:23;;;;;;;0.97;0.97;;;;;;;14.31;100.00;100191.34;5099924;28;20208;-79
2023/05/10 09:05:50;;;;;;;0.80;0.80;;;;;;;14.35;100.00;100190.91;5109464;28;20557;-79
2023/05/10 09:08:17;;;;;;;0.60;0.60;;;;;;;14.41;100.00;100202.97;5108556;28;20226;-78
2023/05/10 09:10:47;;;;;;;1.17;0.90;;;;;;;14.42;100.00;100205.53;5103253;28;20287;-78
2023/05/10 09:13:14;;;;;;;0.80;0.80;;;;;;;14.44;100.00;100208.06;5103821;28;20239;-78
2023/05/10 09:15:41;;;;;;;1.07;0.73;;;;;;;14.46;100.00;100214.16;5106306;28;20203;-79
2023/05/10 09:18:07;;;;;;;0.80;0.80;;;;;;;14.50;100.00;100219.13;5108286;28;20212;-79
2023/05/10 09:20:34;;;;;;;1.43;0.87;;;;;;;14.52;100.00;100211.78;5107298;28;20231;-79
2023/05/10 09:23:00;;;;;;;2.53;0.43;;;;;;;14.55;100.00;100227.59;5104134;28;20196;-79
2023/05/10 09:25:27;;;;;;;0.50;0.50;;;;;;;14.55;100.00;100232.94;5102797;28;20219;-79
2023/05/10 09:27:55;;;;;;;0.53;0.53;;;;;;;14.57;100.00;100233.66;5107839;27;20227;-79
2023/05/10 09:30:26;;;;;;;0.27;0.27;;;;;;;14.54;100.00;100246.47;5107699;28;20714;-79
2023/05/10 09:32:53;;;;;;;1.07;0.40;;;;;;;14.53;100.00;100240.25;5109294;28;20203;-79
2023/05/10 09:35:22;;;;;;;0.53;0.50;;;;;;;14.52;100.00;100251.97;5106779;28;20204;-79
2023/05/10 09:37:53;;;;;;;1.07;0.60;;;;;;;14.53;100.00;100242.09;5109890;28;20290;-79
2023/05/10 09:40:21;;;;;;;0.80;0.60;;;;;;;14.52;100.00;100249.28;5107302;28;20315;-79
2023/05/10 09:42:53;;;;;;;0.50;0.50;;;;;;;14.54;100.00;100254.50;5109591;28;20226;-79
2023/05/10 09:45:21;;;;;;;1.50;0.70;;;;;;;14.57;100.00;100257.78;5104901;28;20200;-79
2023/05/10 09:47:48;;;;;;;1.00;1.00;;;;;;;14.63;100.00;100256.41;5109247;28;20693;-78
2023/05/10 09:50:14;;;;;;;2.27;1.40;;;;;;;14.69;100.00;100257.72;5109340;28;20226;-77
2023/05/10 09:52:49;;;;;;;1.23;1.10;;;;;;;14.72;100.00;100260.13;5109059;28;20682;-77
2023/05/10 09:55:16;;;;;;;1.50;1.30;;;;;;;14.72;100.00;100262.78;5111286;28;20211;-78
2023/05/10 09:57:42;;;;;;;1.10;0.77;;;;;;;14.72;100.00;100252.91;5102772;28;20210;-78
2023/05/10 10:00:10;;;;;;;1.60;1.00;;;;;;;14.75;100.00;100267.91;5107416;28;20227;-77
2023/05/10 10:02:40;;;;;;;0.80;0.80;;;;;;;14.77;100.00;100263.25;5099514;28;20204;-79
2023/05/10 10:05:07;;;;;;;2.40;1.07;;;;;;;14.80;100.00;100258.47;5099983;28;20688;-78
2023/05/10 10:07:35;;;;;;;1.70;0.73;;;;;;;14.84;99.31;100270.66;5103913;28;20223;-78
2023/05/10 10:10:02;;;;;;;0.97;0.97;;;;;;;14.89;98.94;100268.38;5106220;28;20285;-78
2023/05/10 10:12:28;;;;;;;0.97;0.70;;;;;;;14.95;98.50;100269.69;5108941;28;20211;-78
2023/05/10 10:14:56;;;;;;;1.10;1.00;;;;;;;15.02;98.63;100272.69;5107192;28;20563;-78
2023/05/10 10:17:27;;;;;;;1.10;1.00;;;;;;;15.10;98.68;100273.72;5104545;28;20211;-79
2023/05/10 10:19:56;;;;;;;0.93;0.90;;;;;;;15.18;98.40;100278.41;5107521;28;20719;-79
2023/05/10 10:22:22;;;;;;;0.80;0.80;;;;;;;15.23;98.32;100277.00;5104736;28;20203;-78
2023/05/10 10:24:49;;;;;;;1.10;1.00;;;;;;;15.28;97.48;100277.44;5108506;28;20207;-83
2023/05/10 10:27:23;;;;;;;1.20;1.10;;;;;;;15.34;96.98;100285.94;5105485;28;20192;-82
2023/05/10 10:30:01;;;;;;;1.30;1.00;;;;;;;15.39;96.43;100289.06;5106917;28;20680;-82
2023/05/10 10:32:36;;;;;;;1.33;0.90;;;;;;;15.45;95.72;100277.78;5114601;28;20199;-82
2023/05/10 10:35:05;;;;;;;1.30;1.20;;;;;;;15.51;94.91;100279.91;5108071;28;20196;-81
2023/05/10 10:37:46;;;;;;;1.50;1.40;;;;;;;15.55;93.62;100281.34;5115508;28;20219;-84
2023/05/10 10:40:24;;;;;;;1.47;1.37;;;;;;;15.60;92.75;100285.31;5114163;28;20238;-81
2023/05/10 10:42:51;;;;;;;1.83;1.73;;;;;;;15.64;92.06;100285.91;5107007;28;20196;-83
2023/05/10 10:45:18;;;;;;;1.93;1.70;;;;;;;15.69;92.01;100286.34;5115444;28;20209;-84
2023/05/10 10:47:45;;;;;;;4.27;1.60;;;;;;;15.75;90.92;100293.00;5106071;28;20249;-81
2023/05/10 10:53:13;;;;;;;2.17;1.87;;;;;;;15.85;88.67;100288.50;5111085;28;20217;-82
2023/05/10 10:55:48;;;;;;;2.13;1.90;;;;;;;15.88;87.50;100286.38;5103954;28;20213;-83
2023/05/10 10:58:41;;;;;;;3.63;2.07;;;;;;;15.93;86.96;100294.88;5108690;28;20253;-82
2023/05/10 11:01:21;;;;;;;2.57;1.80;;;;;;;16.00;85.84;100286.22;5108320;28;20230;-84
2023/05/10 11:04:18;;;;;;;2.20;2.03;;;;;;;16.05;85.13;100283.97;5105723;28;20706;-81
2023/05/10 11:06:46;;;;;;;2.37;1.93;;;;;;;16.11;84.63;100284.28;5101828;28;20208;-82
2023/05/10 11:09:13;;;;;;;2.40;2.20;;;;;;;16.18;84.46;100284.53;5109696;28;20255;-83
2023/05/10 11:11:50;;;;;;;2.50;2.30;;;;;;;16.23;84.39;100285.81;5108424;28;20221;-83
2023/05/10 11:14:21;;;;;;;2.80;2.60;;;;;;;16.31;83.65;100285.94;5109622;28;20196;-82
2023/05/10 11:16:48;;;;;;;3.00;2.20;;;;;;;16.38;83.28;100291.59;5111354;28;20206;-83
2023/05/10 11:19:16;;;;;;;2.33;1.93;;;;;;;16.47;83.40;100289.91;5107690;28;20877;-81
2023/05/10 11:21:48;;;;;;;2.97;2.20;;;;;;;16.55;83.03;100290.03;5104295;28;20744;-82
2023/05/10 11:24:16;;;;;;;2.60;2.13;;;;;;;16.65;82.60;100288.22;5112014;28;20259;-82
2023/05/10 11:26:43;;;;;;;3.83;2.67;;;;;;;16.74;81.96;100291.84;5117505;28;20221;-81
2023/05/10 11:29:09;;;;;;;3.43;2.27;;;;;;;16.81;80.96;100291.16;5108712;28;20223;-82
2023/05/10 11:31:36;;;;;;;2.50;2.30;;;;;;;16.93;80.09;100294.50;5114283;28;20681;-81
2023/05/10 11:34:02;;;;;;;3.23;2.07;;;;;;;17.00;79.54;100291.09;5115446;28;20211;-81
2023/05/10 11:36:30;;;;;;;2.30;2.10;;;;;;;17.10;78.58;100290.19;5111062;28;20213;-83